Time;durP1;ratioP1;P1;durP2;ratioP2;P2;SDS_P1;SDS_P2;PMS_P1;PMS_P2;Temp;Humidity;BMP_temperature;BMP_pressure;BME280_temperature;BME280_humidity;BME280_pressure;Samples;Min_cycle;Max_cycle;Signal;HPM_P1;HPM_P2
2022/05/10 00:01:26;;;;;;;5.70;2.40;;;12.50;94.30;;;;;;5010026;28;20034;-49
2022/05/10 00:03:52;;;;;;;6.10;2.60;;;12.40;94.20;;;;;;5010229;28;20054;-50
2022/05/10 00:06:18;;;;;;;5.70;2.67;;;12.40;94.70;;;;;;5009798;28;20109;-48
2022/05/10 00:08:44;;;;;;;4.35;2.40;;;12.40;94.80;;;;;;5009765;28;20041;-48
2022/05/10 00:11:10;;;;;;;3.90;2.10;;;12.40;95.10;;;;;;5009830;28;20084;-48
2022/05/10 00:13:36;;;;;;;4.53;2.47;;;12.30;95.20;;;;;;5009586;28;20030;-49
2022/05/10 00:16:04;;;;;;;7.70;2.70;;;12.30;95.30;;;;;;5009835;28;20029;-48
2022/05/10 00:18:30;;;;;;;6.57;2.30;;;12.30;95.60;;;;;;4975677;28;20037;-48
2022/05/10 00:20:56;;;;;;;5.13;2.88;;;12.30;95.50;;;;;;5009503;28;20394;-47
2022/05/10 00:23:21;;;;;;;9.13;2.30;;;12.30;95.70;;;;;;5009537;28;20061;-48
2022/05/10 00:25:47;;;;;;;4.40;2.30;;;12.20;95.90;;;;;;5009742;28;20461;-48
2022/05/10 00:28:12;;;;;;;4.70;2.20;;;12.20;96.00;;;;;;5010637;28;20022;-49
2022/05/10 00:30:38;;;;;;;5.53;3.17;;;12.20;96.10;;;;;;5013462;28;20031;-50
2022/05/10 00:33:04;;;;;;;3.00;2.50;;;12.20;96.10;;;;;;5013225;28;20048;-51
2022/05/10 00:35:32;;;;;;;5.22;2.22;;;12.10;96.60;;;;;;4996133;28;20116;-48
2022/05/10 00:38:00;;;;;;;6.07;3.05;;;12.10;96.90;;;;;;5013470;28;20097;-49
2022/05/10 00:40:35;;;;;;;4.68;2.20;;;12.10;96.70;;;;;;5013291;28;20025;-51
2022/05/10 00:43:16;;;;;;;6.07;3.22;;;12.10;97.00;;;;;;5013012;28;20037;-48
2022/05/10 00:45:44;;;;;;;3.45;2.83;;;12.10;97.20;;;;;;5013004;28;20041;-49
2022/05/10 00:48:30;;;;;;;4.22;2.47;;;12.10;97.00;;;;;;5013105;28;20030;-50
2022/05/10 00:51:09;;;;;;;5.30;2.50;;;12.10;97.40;;;;;;5010113;28;20465;-50
2022/05/10 00:53:55;;;;;;;3.40;2.45;;;12.10;97.30;;;;;;5013005;28;20547;-48
2022/05/10 00:56:49;;;;;;;3.22;2.30;;;12.10;97.30;;;;;;5012354;28;20070;-48
2022/05/10 00:59:45;;;;;;;5.70;2.42;;;12.10;97.60;;;;;;5010839;28;20048;-49
2022/05/10 01:02:29;;;;;;;3.55;2.22;;;12.10;97.60;;;;;;5010299;28;20026;-49
2022/05/10 01:04:58;;;;;;;4.88;2.42;;;12.00;97.90;;;;;;5012121;28;20018;-50
2022/05/10 01:07:40;;;;;;;3.90;2.83;;;12.00;98.20;;;;;;5013749;28;20045;-47
2022/05/10 01:10:46;;;;;;;2.92;2.25;;;12.00;98.10;;;;;;5012881;28;20540;-50
2022/05/10 01:13:37;;;;;;;4.47;2.38;;;12.00;98.60;;;;;;5009777;28;20042;-49
2022/05/10 01:16:16;;;;;;;3.05;2.70;;;12.00;98.60;;;;;;5012863;28;20038;-50
2022/05/10 01:18:43;;;;;;;5.97;2.65;;;11.90;98.70;;;;;;5012250;28;20502;-48
2022/05/10 01:21:15;;;;;;;8.77;3.30;;;11.90;98.90;;;;;;5012534;28;20033;-50
2022/05/10 01:24:08;;;;;;;5.95;3.20;;;11.90;99.50;;;;;;5012650;28;20160;-49
2022/05/10 01:26:49;;;;;;;4.05;2.60;;;11.80;99.90;;;;;;5012604;28;20026;-48
2022/05/10 01:29:21;;;;;;;4.32;2.58;;;11.80;99.90;;;;;;5012478;28;20057;-48
2022/05/10 01:33:29;;;;;;;3.28;2.70;;;11.80;99.90;;;;;;5012142;28;20109;-50
2022/05/10 01:34:39;;;;;;;6.97;2.78;;;11.70;99.90;;;;;;5012044;28;20073;-47
2022/05/10 01:37:11;;;;;;;6.75;3.42;;;11.80;99.90;;;;;;5012203;28;20649;-51
2022/05/10 01:39:55;;;;;;;3.70;2.45;;;11.70;99.90;;;;;;5011083;28;20674;-50
2022/05/10 01:42:31;;;;;;;3.35;2.65;;;11.70;99.90;;;;;;5011869;28;20056;-50
2022/05/10 01:45:04;;;;;;;5.22;2.60;;;11.70;99.90;;;;;;5012184;28;20026;-47
2022/05/10 01:47:47;;;;;;;5.72;2.33;;;11.70;99.90;;;;;;5012293;28;20033;-49
2022/05/10 01:50:49;;;;;;;4.60;2.17;;;11.70;99.90;;;;;;5012146;28;20065;-50
2022/05/10 01:53:20;;;;;;;4.32;2.15;;;11.70;99.90;;;;;;5012195;28;20025;-48
2022/05/10 01:55:58;;;;;;;5.18;2.65;;;11.60;99.90;;;;;;5012352;28;20495;-51
2022/05/10 01:58:31;;;;;;;4.68;2.78;;;11.60;99.90;;;;;;5011822;28;20026;-51
2022/05/10 02:01:06;;;;;;;6.30;2.53;;;11.60;99.90;;;;;;5011660;28;20076;-49
2022/05/10 02:03:52;;;;;;;4.50;2.90;;;11.60;99.90;;;;;;5011603;28;20026;-50
2022/05/10 02:06:39;;;;;;;4.57;2.55;;;11.60;99.90;;;;;;5011711;28;20276;-51
2022/05/10 02:09:14;;;;;;;6.15;2.38;;;11.60;99.90;;;;;;5004209;28;20438;-48
2022/05/10 02:11:44;;;;;;;5.68;2.95;;;11.50;99.90;;;;;;4985676;28;20144;-48
2022/05/10 02:14:13;;;;;;;5.18;2.65;;;11.50;99.90;;;;;;5011445;28;20030;-48
2022/05/10 02:16:48;;;;;;;5.60;2.80;;;11.50;99.90;;;;;;5011607;28;20030;-50
2022/05/10 02:19:23;;;;;;;5.25;3.40;;;11.50;99.90;;;;;;5011099;28;20034;-48
2022/05/10 02:21:57;;;;;;;3.85;2.28;;;11.50;99.90;;;;;;5011156;28;20029;-50
2022/05/10 02:24:30;;;;;;;3.20;2.30;;;11.40;99.90;;;;;;5011317;28;20037;-48
2022/05/10 02:27:01;;;;;;;2.95;2.60;;;11.40;99.90;;;;;;5011080;28;20022;-48
2022/05/10 02:29:32;;;;;;;5.55;2.65;;;11.40;99.90;;;;;;4992965;28;20022;-53
2022/05/10 02:34:53;;;;;;;7.38;2.97;;;11.40;99.90;;;;;;5011557;28;20048;-49
2022/05/10 02:37:19;;;;;;;4.55;2.63;;;11.40;99.90;;;;;;5011227;28;20033;-50
2022/05/10 02:39:45;;;;;;;4.13;2.67;;;11.40;99.90;;;;;;5011414;28;20036;-48
2022/05/10 02:42:13;;;;;;;5.10;2.50;;;11.40;99.90;;;;;;4993278;28;20561;-48
2022/05/10 02:44:40;;;;;;;5.40;3.00;;;11.40;99.90;;;;;;5011082;28;20402;-51
2022/05/10 02:47:07;;;;;;;5.35;2.80;;;11.40;99.90;;;;;;5010821;28;20018;-48
2022/05/10 02:49:35;;;;;;;5.82;2.50;;;11.40;99.90;;;;;;5010636;28;20060;-48
2022/05/10 02:52:01;;;;;;;7.93;3.13;;;11.30;99.90;;;;;;5010299;28;20113;-48
2022/05/10 02:54:26;;;;;;;6.90;3.05;;;11.30;99.90;;;;;;5010609;28;20117;-50
2022/05/10 02:56:52;;;;;;;4.20;2.40;;;11.30;99.90;;;;;;5010611;28;20038;-49
2022/05/10 02:59:24;;;;;;;4.45;2.78;;;11.40;99.90;;;;;;5010532;28;20091;-48
2022/05/10 03:02:16;;;;;;;5.97;2.42;;;11.40;99.90;;;;;;5010286;28;20072;-50
2022/05/10 03:04:49;;;;;;;4.25;2.72;;;11.30;99.90;;;;;;5010773;28;20052;-48
2022/05/10 03:07:15;;;;;;;5.28;2.80;;;11.30;99.90;;;;;;5010863;28;20109;-48
2022/05/10 03:09:40;;;;;;;5.43;2.83;;;11.30;99.90;;;;;;5010132;28;20101;-50
2022/05/10 03:12:07;;;;;;;5.53;3.55;;;11.30;99.90;;;;;;5010653;28;20026;-48
2022/05/10 03:14:33;;;;;;;4.20;2.92;;;11.30;99.90;;;;;;5011156;28;20117;-50
2022/05/10 03:16:59;;;;;;;3.35;2.47;;;11.30;99.90;;;;;;5010788;28;20057;-48
2022/05/10 03:19:24;;;;;;;3.53;2.90;;;11.30;99.90;;;;;;5009976;28;20056;-50
2022/05/10 03:21:50;;;;;;;5.10;2.72;;;11.30;99.90;;;;;;5010009;28;20061;-51
2022/05/10 03:24:17;;;;;;;5.22;2.83;;;11.30;99.90;;;;;;5010535;28;20056;-48
2022/05/10 03:26:48;;;;;;;4.38;2.90;;;11.20;99.90;;;;;;5010383;28;20018;-47
2022/05/10 03:29:15;;;;;;;5.72;2.97;;;11.20;99.90;;;;;;5009856;28;20573;-49
2022/05/10 03:31:42;;;;;;;6.10;3.28;;;11.30;99.90;;;;;;4992457;28;20036;-49
2022/05/10 03:36:52;;;;;;;4.45;3.13;;;11.30;99.90;;;;;;5010649;28;20484;-49
2022/05/10 03:39:17;;;;;;;4.35;2.47;;;11.30;99.90;;;;;;5009969;28;20030;-49
2022/05/10 03:41:43;;;;;;;5.35;2.85;;;11.30;99.90;;;;;;5009834;28;20054;-50
2022/05/10 03:44:09;;;;;;;2.85;2.35;;;11.30;99.90;;;;;;5010247;28;20434;-51
2022/05/10 03:46:35;;;;;;;5.43;3.00;;;11.30;99.90;;;;;;5010138;28;20061;-50
2022/05/10 03:49:01;;;;;;;3.38;2.65;;;11.30;99.90;;;;;;4992432;28;20112;-48
2022/05/10 03:51:26;;;;;;;5.78;3.78;;;11.30;99.90;;;;;;5010243;28;20033;-48
2022/05/10 03:53:52;;;;;;;5.90;3.63;;;11.30;99.90;;;;;;5010337;28;20090;-49
2022/05/10 03:56:18;;;;;;;3.92;2.88;;;11.40;99.90;;;;;;5010236;28;20029;-48
2022/05/10 03:58:44;;;;;;;7.05;3.05;;;11.40;99.90;;;;;;5009943;28;20066;-48
2022/05/10 04:01:10;;;;;;;6.55;2.90;;;11.40;99.90;;;;;;5009867;28;20111;-49
2022/05/10 04:03:36;;;;;;;5.10;2.95;;;11.40;99.90;;;;;;5011677;28;20084;-50
2022/05/10 04:06:02;;;;;;;4.75;3.00;;;11.40;99.90;;;;;;5014123;28;20048;-48
2022/05/10 04:08:27;;;;;;;5.20;3.03;;;11.40;99.90;;;;;;5013906;28;20453;-53
2022/05/10 04:10:53;;;;;;;3.45;2.60;;;11.50;99.90;;;;;;5013933;28;20037;-50
2022/05/10 04:13:19;;;;;;;4.50;2.72;;;11.50;99.90;;;;;;5013671;28;20394;-49
2022/05/10 04:15:45;;;;;;;5.40;3.10;;;11.50;99.90;;;;;;5013875;28;20026;-48
2022/05/10 04:18:10;;;;;;;5.05;3.17;;;11.50;99.90;;;;;;5013715;28;20033;-48
2022/05/10 04:20:36;;;;;;;7.05;3.35;;;11.60;99.90;;;;;;5013436;28;20036;-50
2022/05/10 04:23:02;;;;;;;4.50;3.38;;;11.60;99.90;;;;;;5013480;28;20026;-49
2022/05/10 04:25:27;;;;;;;6.25;3.28;;;11.60;99.90;;;;;;5013751;28;20010;-48
2022/05/10 04:27:53;;;;;;;5.32;3.30;;;11.70;99.90;;;;;;5013888;28;20056;-48
2022/05/10 04:30:21;;;;;;;5.90;3.63;;;11.70;99.90;;;;;;5013186;28;20393;-48
2022/05/10 04:32:46;;;;;;;5.28;3.20;;;11.70;99.90;;;;;;5013446;28;20037;-48
2022/05/10 04:35:12;;;;;;;4.22;3.00;;;11.70;99.90;;;;;;5013441;28;20091;-49
2022/05/10 04:37:38;;;;;;;6.75;3.47;;;11.80;99.90;;;;;;5013293;28;20032;-48
2022/05/10 04:42:52;;;;;;;7.15;3.33;;;11.90;99.90;;;;;;5013160;28;20121;-50
2022/05/10 04:45:18;;;;;;;4.00;3.13;;;12.00;99.90;;;;;;5013119;28;20022;-50
2022/05/10 04:47:43;;;;;;;5.63;3.67;;;12.00;99.90;;;;;;5013155;28;20041;-49
2022/05/10 04:50:10;;;;;;;4.72;3.38;;;12.10;99.90;;;;;;5012879;28;20473;-49
2022/05/10 04:52:36;;;;;;;4.05;3.47;;;12.10;99.90;;;;;;5012866;28;20084;-49
2022/05/10 04:55:02;;;;;;;6.07;3.53;;;12.20;99.90;;;;;;5012951;28;20030;-49
2022/05/10 04:57:28;;;;;;;6.32;3.20;;;12.20;99.90;;;;;;5012961;28;20049;-48
2022/05/10 04:59:53;;;;;;;7.50;3.53;;;12.30;99.90;;;;;;5012704;28;20080;-50
2022/05/10 05:02:19;;;;;;;5.18;3.47;;;12.30;99.90;;;;;;5012692;28;20033;-49
2022/05/10 05:04:44;;;;;;;5.55;3.22;;;12.40;99.90;;;;;;5012921;28;20026;-49
2022/05/10 05:07:10;;;;;;;6.13;3.40;;;12.40;99.90;;;;;;5012964;28;20034;-51
2022/05/10 05:09:36;;;;;;;2.92;2.63;;;12.50;99.90;;;;;;5012914;28;20087;-51
2022/05/10 05:12:04;;;;;;;4.95;2.83;;;12.60;99.90;;;;;;5012579;28;20025;-48
2022/05/10 05:14:29;;;;;;;4.85;3.50;;;12.60;99.90;;;;;;5011593;28;20562;-48
2022/05/10 05:16:55;;;;;;;3.90;3.35;;;12.60;99.90;;;;;;5012759;28;20057;-49
2022/05/10 05:19:21;;;;;;;5.78;3.58;;;12.80;99.90;;;;;;5012289;28;20157;-49
2022/05/10 05:21:46;;;;;;;5.53;3.38;;;12.80;99.90;;;;;;5012479;28;20410;-50
2022/05/10 05:24:12;;;;;;;6.18;3.33;;;12.90;99.90;;;;;;5012436;28;20025;-50
2022/05/10 05:26:38;;;;;;;4.50;3.40;;;13.00;99.90;;;;;;5012385;28;20036;-48
2022/05/10 05:29:04;;;;;;;6.13;2.92;;;13.00;99.90;;;;;;4994377;28;20033;-49
2022/05/10 05:31:29;;;;;;;4.75;3.63;;;13.10;99.90;;;;;;5012228;28;20052;-50
2022/05/10 05:33:56;;;;;;;7.35;3.60;;;13.20;99.90;;;;;;5012305;28;20036;-49
2022/05/10 05:36:21;;;;;;;6.60;3.33;;;13.30;99.90;;;;;;5012491;28;20397;-50
2022/05/10 05:38:49;;;;;;;5.03;2.55;;;13.30;99.90;;;;;;5012316;28;20022;-49
2022/05/10 05:41:15;;;;;;;5.43;3.63;;;13.40;99.90;;;;;;5012009;28;20116;-49
2022/05/10 05:43:41;;;;;;;3.67;3.13;;;13.50;99.90;;;;;;5012233;28;20456;-52
2022/05/10 05:46:08;;;;;;;6.75;3.90;;;13.60;99.90;;;;;;5012388;28;20030;-48
2022/05/10 05:48:33;;;;;;;10.90;3.65;;;13.60;99.90;;;;;;5012323;28;20014;-50
2022/05/10 05:50:59;;;;;;;8.10;3.33;;;13.70;99.90;;;;;;5012265;28;20112;-51
2022/05/10 05:53:26;;;;;;;4.70;3.25;;;13.80;99.90;;;;;;5011700;28;20030;-49
2022/05/10 05:55:53;;;;;;;3.88;3.30;;;13.90;99.90;;;;;;5011892;28;20025;-51
2022/05/10 05:58:19;;;;;;;7.68;3.30;;;14.00;99.90;;;;;;5011897;28;20026;-48
2022/05/10 06:00:45;;;;;;;6.30;3.72;;;14.00;99.90;;;;;;5011904;28;20073;-50
2022/05/10 06:03:11;;;;;;;5.43;3.58;;;14.10;99.90;;;;;;5011505;28;20057;-48
2022/05/10 06:05:37;;;;;;;6.03;4.15;;;14.20;99.90;;;;;;5012060;28;20026;-48
2022/05/10 06:08:03;;;;;;;7.20;3.72;;;14.40;99.90;;;;;;4994254;28;20057;-49
2022/05/10 06:10:29;;;;;;;6.57;3.45;;;14.50;99.90;;;;;;5011796;28;20030;-48
2022/05/10 06:12:59;;;;;;;6.22;3.25;;;14.60;99.90;;;;;;5011651;28;20096;-49
2022/05/10 06:15:24;;;;;;;5.03;3.38;;;14.80;99.90;;;;;;4994040;28;20022;-50
2022/05/10 06:17:50;;;;;;;6.38;3.60;;;14.90;99.90;;;;;;5012079;28;20567;-48
2022/05/10 06:20:19;;;;;;;3.78;3.10;;;15.20;99.90;;;;;;5011465;28;20029;-49
2022/05/10 06:22:45;;;;;;;6.43;3.83;;;15.30;99.90;;;;;;4993976;28;20392;-49
2022/05/10 06:25:15;;;;;;;6.63;3.35;;;15.50;99.90;;;;;;5011851;28;20378;-48
2022/05/10 06:27:41;;;;;;;3.75;3.40;;;15.80;99.90;;;;;;5011888;28;20105;-49
2022/05/10 06:30:06;;;;;;;8.35;3.45;;;16.00;99.90;;;;;;5012012;28;20057;-51
2022/05/10 06:32:32;;;;;;;5.20;3.10;;;16.20;99.90;;;;;;5011133;28;20508;-50
2022/05/10 06:34:59;;;;;;;7.18;3.13;;;16.40;99.90;;;;;;5011464;28;20029;-51
2022/05/10 06:40:15;;;;;;;5.90;4.03;;;16.70;99.90;;;;;;5011537;28;20044;-49
2022/05/10 06:42:41;;;;;;;7.72;3.78;;;16.80;99.90;;;;;;5010775;28;20160;-49
2022/05/10 06:45:10;;;;;;;5.68;3.50;;;16.90;99.90;;;;;;5011232;28;20100;-51
2022/05/10 06:47:38;;;;;;;9.77;3.72;;;17.00;99.90;;;;;;5011255;28;20166;-48
2022/05/10 06:50:06;;;;;;;8.23;3.72;;;17.10;99.90;;;;;;5011044;28;20022;-54
2022/05/10 06:52:32;;;;;;;4.50;3.40;;;17.20;99.90;;;;;;5010887;28;20037;-51
2022/05/10 06:54:58;;;;;;;5.45;3.70;;;17.30;99.90;;;;;;5011155;28;20026;-49
2022/05/10 06:57:23;;;;;;;7.28;3.65;;;17.40;99.90;;;;;;5011045;28;20422;-49
2022/05/10 06:59:49;;;;;;;6.63;3.13;;;17.50;99.90;;;;;;5010820;28;20096;-50
2022/05/10 07:02:15;;;;;;;6.03;4.00;;;17.60;99.90;;;;;;5010882;28;20038;-48
2022/05/10 07:04:40;;;;;;;7.47;3.83;;;17.80;99.90;;;;;;5010928;28;20080;-48
2022/05/10 07:07:06;;;;;;;7.05;4.18;;;17.90;99.90;;;;;;4993511;28;20029;-50
2022/05/10 07:09:31;;;;;;;5.50;3.40;;;18.00;99.90;;;;;;4993138;28;20478;-51
2022/05/10 07:11:57;;;;;;;5.43;3.53;;;18.20;99.90;;;;;;5010413;28;20054;-50
2022/05/10 07:14:23;;;;;;;7.22;3.45;;;18.40;99.90;;;;;;5010648;28;20026;-46
2022/05/10 07:16:48;;;;;;;5.70;4.10;;;18.50;99.90;;;;;;5010813;28;20033;-49
2022/05/10 07:19:14;;;;;;;7.63;4.45;;;18.80;99.90;;;;;;5010311;28;20030;-50
2022/05/10 07:21:39;;;;;;;5.93;3.30;;;19.10;99.90;;;;;;5010276;28;20394;-48
2022/05/10 07:24:05;;;;;;;5.18;3.28;;;19.30;99.90;;;;;;5010974;28;20104;-50
2022/05/10 07:26:31;;;;;;;6.30;3.85;;;19.60;99.90;;;;;;5010579;28;20065;-49
2022/05/10 07:28:57;;;;;;;7.10;3.50;;;19.90;99.90;;;;;;5010079;28;20075;-49
2022/05/10 07:31:22;;;;;;;7.00;3.25;;;20.10;99.90;;;;;;5010208;28;20022;-51
2022/05/10 07:33:48;;;;;;;4.22;3.08;;;20.20;99.90;;;;;;5010540;28;20018;-48
2022/05/10 07:36:23;;;;;;;4.28;3.40;;;20.30;99.70;;;;;;5010499;28;20030;-52
2022/05/10 07:38:49;;;;;;;6.57;3.73;;;20.40;99.20;;;;;;5009684;28;20041;-50
2022/05/10 07:41:18;;;;;;;7.20;2.80;;;20.50;99.40;;;;;;5010348;28;20281;-49
2022/05/10 07:43:45;;;;;;;6.70;3.40;;;20.60;99.30;;;;;;5011036;28;20104;-46
2022/05/10 07:46:10;;;;;;;10.70;3.70;;;20.60;99.30;;;;;;5010477;28;20022;-46
2022/05/10 07:48:36;;;;;;;5.05;3.80;;;20.70;99.70;;;;;;5010311;28;20414;-47
2022/05/10 07:51:03;;;;;;;6.90;3.47;;;20.70;99.30;;;;;;5010045;28;20448;-48
2022/05/10 07:53:31;;;;;;;7.40;3.80;;;20.80;99.50;;;;;;5009876;28;20041;-48
2022/05/10 07:55:57;;;;;;;5.82;3.78;;;20.80;98.30;;;;;;5009957;28;20022;-45
2022/05/10 07:58:23;;;;;;;6.10;4.00;;;20.80;99.10;;;;;;5009865;28;20022;-47
2022/05/10 08:00:48;;;;;;;4.80;3.45;;;20.80;98.10;;;;;;5009951;28;20088;-48
2022/05/10 08:03:19;;;;;;;4.45;3.67;;;20.80;98.20;;;;;;5009931;28;20053;-46
2022/05/10 08:05:46;;;;;;;10.10;4.03;;;20.80;98.80;;;;;;5010089;28;20034;-46
2022/05/10 08:08:12;;;;;;;7.95;4.18;;;20.90;98.70;;;;;;5009953;28;20028;-47
2022/05/10 08:10:40;;;;;;;9.73;3.72;;;21.00;98.00;;;;;;5009953;28;20022;-46
2022/05/10 08:13:10;;;;;;;8.90;3.63;;;20.90;98.30;;;;;;4992086;28;20049;-48
2022/05/10 08:15:36;;;;;;;5.78;3.25;;;21.00;98.70;;;;;;5009993;28;20026;-47
2022/05/10 08:18:01;;;;;;;8.45;4.13;;;21.00;98.50;;;;;;5010083;28;20081;-48
2022/05/10 08:20:27;;;;;;;9.95;3.55;;;21.10;98.10;;;;;;5009494;28;20030;-47
2022/05/10 08:22:53;;;;;;;4.97;2.97;;;21.10;97.90;;;;;;5009847;28;20026;-47
2022/05/10 08:25:18;;;;;;;5.10;3.17;;;21.20;98.10;;;;;;5009894;28;20043;-49
2022/05/10 08:27:44;;;;;;;6.20;3.45;;;21.30;98.40;;;;;;5009705;28;20033;-48
2022/05/10 08:30:10;;;;;;;9.88;3.35;;;21.40;98.30;;;;;;5009029;28;20026;-49
2022/05/10 08:32:35;;;;;;;5.00;3.45;;;21.60;98.30;;;;;;4991917;28;20026;-53
2022/05/10 08:35:01;;;;;;;5.63;3.30;;;21.80;97.80;;;;;;5009845;28;20030;-50
2022/05/10 08:37:26;;;;;;;6.90;3.45;;;21.90;98.00;;;;;;5009705;28;20037;-50
2022/05/10 08:39:52;;;;;;;9.75;4.13;;;22.10;97.50;;;;;;5009697;28;20116;-51
2022/05/10 08:42:24;;;;;;;6.55;3.63;;;22.10;96.70;;;;;;5009516;28;20131;-49
2022/05/10 08:44:59;;;;;;;8.00;3.60;;;22.10;96.50;;;;;;4991962;28;20037;-51
2022/05/10 08:47:26;;;;;;;4.97;3.57;;;22.00;96.20;;;;;;5009995;28;20057;-51
2022/05/10 08:49:58;;;;;;;7.80;4.00;;;22.00;96.70;;;;;;5011525;28;20018;-52
2022/05/10 08:52:34;;;;;;;5.65;3.85;;;21.90;96.20;;;;;;4995401;28;20025;-49
2022/05/10 08:55:00;;;;;;;4.80;3.70;;;21.80;96.50;;;;;;5013374;28;20697;-52
2022/05/10 08:57:50;;;;;;;8.05;3.83;;;21.80;96.10;;;;;;5013538;28;20030;-49
2022/05/10 09:00:19;;;;;;;4.75;4.03;;;21.80;97.00;;;;;;5013371;28;20663;-53
2022/05/10 09:02:56;;;;;;;4.53;3.50;;;21.90;97.10;;;;;;4995264;28;20514;-51
2022/05/10 09:05:25;;;;;;;6.18;3.72;;;21.90;96.50;;;;;;5013252;28;20030;-50
2022/05/10 09:08:17;;;;;;;6.43;4.07;;;21.90;96.10;;;;;;5013279;28;20033;-49
2022/05/10 09:10:50;;;;;;;5.55;4.00;;;21.90;96.70;;;;;;5012984;28;20022;-51
2022/05/10 09:13:19;;;;;;;5.13;3.85;;;22.00;97.00;;;;;;5012888;28;20046;-50
2022/05/10 09:16:17;;;;;;;5.55;3.70;;;22.00;96.80;;;;;;5012980;28;20568;-53
2022/05/10 09:18:46;;;;;;;6.05;4.07;;;22.20;96.30;;;;;;4968891;28;20125;-52
2022/05/10 09:21:32;;;;;;;4.38;3.70;;;22.60;97.10;;;;;;5012604;28;20363;-50
2022/05/10 09:24:09;;;;;;;7.97;4.80;;;22.90;95.40;;;;;;5013365;28;20545;-51
2022/05/10 09:26:46;;;;;;;6.95;4.45;;;23.20;95.70;;;;;;5013163;28;20101;-52
2022/05/10 09:29:47;;;;;;;5.93;3.97;;;23.40;93.60;;;;;;5012941;28;20385;-47
2022/05/10 09:35:27;;;;;;;4.50;3.45;;;23.90;94.00;;;;;;5017761;28;20061;-49
2022/05/10 09:37:55;;;;;;;5.30;3.65;;;24.20;94.20;;;;;;5012908;28;20096;-50
2022/05/10 09:40:26;;;;;;;4.65;3.72;;;24.50;92.90;;;;;;5012416;28;20022;-51
2022/05/10 09:43:09;;;;;;;6.25;3.70;;;24.70;92.10;;;;;;5012091;28;20513;-50
2022/05/10 09:45:34;;;;;;;4.28;2.92;;;24.60;88.20;;;;;;4994730;28;20506;-47
2022/05/10 09:48:09;;;;;;;7.78;3.50;;;24.60;90.30;;;;;;5012220;28;20026;-49
2022/05/10 09:50:42;;;;;;;4.82;2.75;;;24.70;90.80;;;;;;5012407;28;20120;-50
2022/05/10 09:53:18;;;;;;;6.15;3.42;;;24.90;90.00;;;;;;5012064;28;20531;-52
2022/05/10 09:56:05;;;;;;;4.72;2.92;;;25.00;89.50;;;;;;5012185;28;20109;-51
2022/05/10 09:58:53;;;;;;;7.97;3.50;;;25.10;87.80;;;;;;5011863;28;20021;-52
2022/05/10 10:01:36;;;;;;;6.20;3.00;;;25.00;83.50;;;;;;5010943;28;20481;-51
2022/05/10 10:04:34;;;;;;;4.47;3.35;;;24.80;84.50;;;;;;4994410;28;20026;-52
2022/05/10 10:07:08;;;;;;;6.05;3.17;;;24.70;83.50;;;;;;5011974;28;20018;-50
2022/05/10 10:09:38;;;;;;;3.28;2.95;;;24.70;84.30;;;;;;5011752;28;20021;-53
2022/05/10 10:12:05;;;;;;;4.45;2.90;;;24.80;83.80;;;;;;4994217;28;20030;-51
2022/05/10 10:14:49;;;;;;;9.60;2.90;;;24.80;85.00;;;;;;5011987;28;20029;-48
2022/05/10 10:17:36;;;;;;;4.65;3.33;;;24.80;83.10;;;;;;5011970;28;20644;-48
2022/05/10 10:20:14;;;;;;;3.58;2.90;;;24.80;84.40;;;;;;5011428;28;20034;-47
2022/05/10 10:22:44;;;;;;;6.18;3.13;;;24.80;83.00;;;;;;5011351;28;20437;-50
2022/05/10 10:25:23;;;;;;;3.80;2.92;;;24.90;86.00;;;;;;5011567;28;20022;-49
2022/05/10 10:28:14;;;;;;;4.82;3.47;;;25.10;85.30;;;;;;5011528;28;20021;-49
2022/05/10 10:31:03;;;;;;;5.00;2.97;;;25.40;85.00;;;;;;5011571;28;20102;-52
2022/05/10 10:33:36;;;;;;;2.67;2.42;;;25.60;82.70;;;;;;5010571;28;20054;-48
2022/05/10 10:36:09;;;;;;;3.03;2.63;;;25.60;80.60;;;;;;5011252;28;20033;-52
2022/05/10 10:39:12;;;;;;;3.63;2.28;;;25.70;82.50;;;;;;5011414;28;20567;-49
2022/05/10 10:41:49;;;;;;;6.68;2.78;;;25.80;80.90;;;;;;5011316;28;20502;-51
2022/05/10 10:44:25;;;;;;;4.43;2.50;;;25.80;78.50;;;;;;5011566;28;20045;-51
2022/05/10 10:46:57;;;;;;;7.95;2.65;;;25.80;76.00;;;;;;5011390;28;20101;-48
2022/05/10 10:49:34;;;;;;;3.05;2.00;;;25.70;77.10;;;;;;5011337;28;20450;-48
2022/05/10 10:51:59;;;;;;;4.78;2.40;;;25.70;75.40;;;;;;5011206;28;20029;-49
2022/05/10 10:54:28;;;;;;;2.95;2.60;;;25.70;75.70;;;;;;5011321;28;20026;-50
2022/05/10 10:57:14;;;;;;;3.85;2.50;;;25.60;75.70;;;;;;4993550;28;20034;-50
2022/05/10 11:00:07;;;;;;;2.75;2.25;;;25.50;74.60;;;;;;5010010;28;20041;-49
2022/05/10 11:03:18;;;;;;;4.32;2.45;;;25.60;74.00;;;;;;5010457;28;20125;-51
2022/05/10 11:06:02;;;;;;;2.55;2.08;;;25.70;75.50;;;;;;4967150;28;20512;-49
2022/05/10 11:08:40;;;;;;;4.25;2.08;;;25.70;72.60;;;;;;5010834;28;20034;-50
2022/05/10 11:11:23;;;;;;;4.95;2.10;;;25.60;73.70;;;;;;5010762;28;20025;-51
2022/05/10 11:13:49;;;;;;;4.50;2.00;;;25.70;72.10;;;;;;5010954;28;20117;-48
2022/05/10 11:16:38;;;;;;;5.47;2.00;;;25.70;72.50;;;;;;4993145;28;20026;-47
2022/05/10 11:19:24;;;;;;;3.50;2.00;;;25.60;70.00;;;;;;5010112;28;20029;-50
2022/05/10 11:22:18;;;;;;;4.40;1.77;;;25.70;69.90;;;;;;5010373;28;20030;-49
2022/05/10 11:24:46;;;;;;;3.05;2.28;;;25.70;69.90;;;;;;5010497;28;20100;-49
2022/05/10 11:27:30;;;;;;;3.92;2.10;;;25.50;70.00;;;;;;5010460;28;20493;-47
2022/05/10 11:30:07;;;;;;;3.35;1.90;;;25.50;69.20;;;;;;5010976;28;20116;-50
2022/05/10 11:33:04;;;;;;;2.08;1.77;;;25.40;70.10;;;;;;5010909;28;20021;-50
2022/05/10 11:35:57;;;;;;;4.82;2.05;;;25.40;71.30;;;;;;5010650;28;20410;-51
2022/05/10 11:38:22;;;;;;;2.40;2.03;;;25.40;70.90;;;;;;4993024;28;20033;-50
2022/05/10 11:41:29;;;;;;;4.45;2.28;;;25.40;69.10;;;;;;5010593;28;20494;-49
2022/05/10 11:44:19;;;;;;;2.65;1.85;;;25.50;70.30;;;;;;5010423;28;20096;-52
2022/05/10 11:47:19;;;;;;;4.35;2.17;;;25.50;69.60;;;;;;5010838;28;20025;-50
2022/05/10 11:49:53;;;;;;;3.08;1.70;;;25.40;68.70;;;;;;5010520;28;20390;-48
2022/05/10 11:52:31;;;;;;;5.63;1.67;;;25.50;69.70;;;;;;5010190;28;20032;-49
2022/05/10 11:55:27;;;;;;;2.17;1.90;;;25.60;69.10;;;;;;5010367;28;20029;-52
2022/05/10 11:57:58;;;;;;;3.35;2.10;;;25.70;68.30;;;;;;5010360;28;20096;-49
2022/05/10 12:00:26;;;;;;;2.63;1.75;;;25.70;69.30;;;;;;5010194;28;20537;-48
2022/05/10 12:02:55;;;;;;;4.65;1.77;;;25.60;65.50;;;;;;5009858;28;20037;-50
2022/05/10 12:05:26;;;;;;;2.00;1.80;;;25.60;63.70;;;;;;5010224;28;20565;-51
2022/05/10 12:07:57;;;;;;;3.70;1.80;;;25.50;66.90;;;;;;4992591;28;20032;-52
2022/05/10 12:10:22;;;;;;;7.55;2.00;;;25.50;67.90;;;;;;5010330;28;20549;-52
2022/05/10 12:12:55;;;;;;;4.05;1.92;;;25.50;65.80;;;;;;5009805;28;20117;-48
2022/05/10 12:21:52;;;;;;;3.55;1.80;;;25.60;68.90;;;;;;5010013;28;20107;-51
2022/05/10 12:24:21;;;;;;;4.97;1.98;;;25.70;66.80;;;;;;4994028;28;20044;-52
2022/05/10 12:26:57;;;;;;;4.88;2.58;;;25.80;68.70;;;;;;5014215;28;20056;-52
2022/05/10 12:29:37;;;;;;;4.43;2.28;;;25.80;69.50;;;;;;5013978;28;20091;-52
2022/05/10 12:32:36;;;;;;;4.47;2.58;;;25.70;70.50;;;;;;5013415;28;20041;-48
2022/05/10 12:35:05;;;;;;;4.03;2.38;;;25.70;68.90;;;;;;5006908;28;20034;-48
2022/05/10 12:37:37;;;;;;;3.72;2.45;;;25.70;70.00;;;;;;5013377;28;20029;-49
2022/05/10 12:40:09;;;;;;;3.10;2.40;;;25.60;70.40;;;;;;5013573;28;20065;-49
2022/05/10 12:43:11;;;;;;;4.82;2.75;;;25.50;71.50;;;;;;5013220;28;20125;-52
2022/05/10 12:45:52;;;;;;;2.90;2.30;;;25.50;71.20;;;;;;5013441;28;20032;-49
2022/05/10 12:48:43;;;;;;;4.70;2.65;;;25.50;71.30;;;;;;5013678;28;20532;-49
2022/05/10 12:51:46;;;;;;;4.65;2.95;;;25.40;69.90;;;;;;5013243;28;20109;-48
2022/05/10 12:54:24;;;;;;;3.40;2.67;;;25.50;70.90;;;;;;5013027;28;20101;-47
2022/05/10 12:57:07;;;;;;;4.72;2.70;;;25.50;71.10;;;;;;5013414;28;20092;-49
2022/05/10 13:00:11;;;;;;;2.92;2.67;;;25.40;70.80;;;;;;5012933;28;20053;-53
2022/05/10 13:02:42;;;;;;;5.20;3.08;;;25.40;71.50;;;;;;5012738;28;20026;-48
2022/05/10 13:05:16;;;;;;;2.28;2.08;;;25.30;71.10;;;;;;5013132;28;20514;-52
2022/05/10 13:07:42;;;;;;;4.72;3.00;;;25.20;71.70;;;;;;5012938;28;20029;-47
2022/05/10 13:10:11;;;;;;;3.05;2.75;;;25.20;71.10;;;;;;5012559;28;20149;-50
2022/05/10 13:12:49;;;;;;;4.18;2.50;;;25.20;72.20;;;;;;4995007;28;20041;-50
2022/05/10 13:15:23;;;;;;;2.67;2.47;;;25.30;72.70;;;;;;5012974;28;20022;-48
2022/05/10 13:17:51;;;;;;;3.38;2.45;;;25.30;71.70;;;;;;5012981;28;20030;-49
2022/05/10 13:20:23;;;;;;;3.95;2.75;;;25.40;72.80;;;;;;5012711;28;20033;-48
2022/05/10 13:22:59;;;;;;;7.20;3.25;;;25.40;72.00;;;;;;5012861;28;20121;-48
2022/05/10 13:25:36;;;;;;;4.50;3.13;;;25.40;71.70;;;;;;5013324;28;20096;-48
2022/05/10 13:28:18;;;;;;;4.03;2.88;;;25.40;72.50;;;;;;4995208;28;20096;-49
2022/05/10 13:31:16;;;;;;;4.88;3.65;;;25.50;73.60;;;;;;5012663;28;20054;-53
2022/05/10 13:33:42;;;;;;;8.43;4.15;;;25.40;72.60;;;;;;5012723;28;20022;-54